createdAt,value
2023-05-13T00:01:14.830Z,102222.84
2023-05-13T00:03:42.555Z,102224.50
2023-05-13T00:06:09.744Z,102220.34
2023-05-13T00:08:37.314Z,102217.56
2023-05-13T00:11:04.281Z,102229.31
2023-05-13T00:13:31.402Z,102230.31
2023-05-13T00:15:58.556Z,102216.28
2023-05-13T00:18:26.299Z,102220.63
2023-05-13T00:20:53.312Z,102223.81
2023-05-13T00:23:20.332Z,102216.94
2023-05-13T00:25:47.478Z,102213.81
2023-05-13T00:28:15.294Z,102220.28
2023-05-13T00:30:45.983Z,102217.78
2023-05-13T00:33:13.232Z,102225.00
2023-05-13T00:35:40.104Z,102213.63
2023-05-13T00:38:07.708Z,102217.84
2023-05-13T00:40:39.668Z,102210.38
2023-05-13T00:43:07.151Z,102211.69
2023-05-13T00:45:34.102Z,102215.09
2023-05-13T00:48:01.401Z,102215.31
2023-05-13T00:50:28.545Z,102212.91
2023-05-13T00:52:58.759Z,102215.66
2023-05-13T00:55:27.006Z,102224.53
2023-05-13T00:57:53.848Z,102215.03
2023-05-13T01:00:21.272Z,102215.34
2023-05-13T01:02:55.389Z,102218.50
2023-05-13T01:05:40.795Z,102221.84
2023-05-13T01:08:32.849Z,102227.41
2023-05-13T01:11:05.073Z,102224.34
2023-05-13T01:13:38.559Z,102223.53
2023-05-13T01:16:40.403Z,102220.47
2023-05-13T01:19:30.629Z,102222.16
2023-05-13T01:21:57.536Z,102228.81
2023-05-13T01:24:24.801Z,102232.44
2023-05-13T01:26:51.833Z,102233.56
2023-05-13T01:29:18.838Z,102227.47
2023-05-13T01:31:46.975Z,102230.75
2023-05-13T01:34:16.281Z,102231.63
2023-05-13T01:36:44.157Z,102231.91
2023-05-13T01:39:12.413Z,102228.00
2023-05-13T01:41:39.254Z,102236.34
2023-05-13T01:44:06.681Z,102238.84
2023-05-13T01:46:33.789Z,102234.09
2023-05-13T01:49:00.664Z,102236.84
2023-05-13T01:51:27.703Z,102236.03
2023-05-13T01:53:54.574Z,102234.09
2023-05-13T01:56:22.551Z,102238.22
2023-05-13T01:58:49.404Z,102205.72
2023-05-13T02:01:16.353Z,102228.50
2023-05-13T02:03:43.499Z,102237.69
2023-05-13T02:06:10.885Z,102240.47
2023-05-13T02:08:38.026Z,102232.09
2023-05-13T02:11:05.003Z,102232.94
2023-05-13T02:13:32.046Z,102232.41
2023-05-13T02:15:58.907Z,102234.31
2023-05-13T02:18:25.956Z,102229.88
2023-05-13T02:20:52.735Z,102230.66
2023-05-13T02:23:19.738Z,102232.91
2023-05-13T02:25:46.810Z,102233.47
2023-05-13T02:28:13.639Z,102236.25
2023-05-13T02:30:40.456Z,102230.97
2023-05-13T02:33:07.563Z,102231.22
2023-05-13T02:35:34.695Z,102238.75
2023-05-13T02:38:04.061Z,102202.81
2023-05-13T02:40:30.887Z,102232.31
2023-05-13T02:42:57.834Z,102199.53
2023-05-13T02:45:24.798Z,102228.13
2023-05-13T02:47:54.311Z,102232.03
2023-05-13T02:50:22.041Z,102235.63
2023-05-13T02:52:49.232Z,102225.34
2023-05-13T02:55:16.281Z,102227.59
2023-05-13T02:57:43.788Z,102227.59
2023-05-13T03:00:11.487Z,102229.19
2023-05-13T03:02:38.424Z,102235.31
2023-05-13T03:05:05.864Z,102228.38
2023-05-13T03:07:32.653Z,102231.13
2023-05-13T03:09:59.436Z,102233.91
2023-05-13T03:12:26.247Z,102229.47
2023-05-13T03:14:53.081Z,102230.59
2023-05-13T03:17:20.254Z,102229.72
2023-05-13T03:19:47.132Z,102235.28
2023-05-13T03:22:13.916Z,102241.09
2023-05-13T03:24:41.829Z,102232.00
2023-05-13T03:27:08.769Z,102243.41
2023-05-13T03:29:35.452Z,102236.44
2023-05-13T03:32:02.423Z,102234.81
2023-05-13T03:34:29.125Z,102237.25
2023-05-13T03:36:55.900Z,102234.47
2023-05-13T03:39:22.699Z,102234.50
2023-05-13T03:41:49.592Z,102231.78
2023-05-13T03:44:16.527Z,102237.88
2023-05-13T03:46:43.800Z,102241.19
2023-05-13T03:49:10.804Z,102234.81
2023-05-13T03:51:37.585Z,102240.38
2023-05-13T03:54:04.294Z,102240.94
2023-05-13T03:56:31.145Z,102216.22
2023-05-13T03:58:58.037Z,102237.91
2023-05-13T04:01:24.942Z,102241.22
2023-05-13T04:03:52.650Z,102241.50
2023-05-13T04:06:19.505Z,102238.16
2023-05-13T04:08:47.132Z,102243.44
2023-05-13T04:11:13.932Z,102239.88
2023-05-13T04:13:40.948Z,102244.06
2023-05-13T04:16:08.013Z,102241.28
2023-05-13T04:18:34.885Z,102246.31
2023-05-13T04:21:06.652Z,102242.13
2023-05-13T04:23:33.617Z,102252.47
2023-05-13T04:26:00.621Z,102237.94
2023-05-13T04:28:29.845Z,102252.34
2023-05-13T04:30:56.907Z,102243.94
2023-05-13T04:33:23.947Z,102242.63
2023-05-13T04:35:50.740Z,102237.56
2023-05-13T04:38:17.635Z,102237.38
2023-05-13T04:40:45.281Z,102220.31
2023-05-13T04:43:12.415Z,102234.25
2023-05-13T04:45:40.194Z,102241.06
2023-05-13T04:48:07.215Z,102232.41
2023-05-13T04:50:34.045Z,102233.97
2023-05-13T04:53:01.461Z,102236.03
2023-05-13T04:55:28.375Z,102241.59
2023-05-13T04:57:55.647Z,102238.91
2023-05-13T05:00:22.960Z,102236.81
2023-05-13T05:02:49.876Z,102243.66
2023-05-13T05:05:18.360Z,102228.50
2023-05-13T05:07:45.836Z,102239.19
2023-05-13T05:10:12.832Z,102243.84
2023-05-13T05:12:40.188Z,102242.31
2023-05-13T05:15:11.538Z,102250.72
2023-05-13T05:17:42.174Z,102254.47
2023-05-13T05:20:09.998Z,102249.44
2023-05-13T05:22:42.380Z,102252.06
2023-05-13T05:25:10.258Z,102256.03
2023-05-13T05:27:37.322Z,102246.63
2023-05-13T05:30:04.977Z,102258.53
2023-05-13T05:32:31.863Z,102255.53
2023-05-13T05:34:58.926Z,102252.56
2023-05-13T05:37:25.857Z,102253.44
2023-05-13T05:39:52.759Z,102258.13
2023-05-13T05:42:19.654Z,102248.66
2023-05-13T05:44:47.831Z,102249.91
2023-05-13T05:47:14.985Z,102250.69
2023-05-13T05:49:41.943Z,102250.88
2023-05-13T05:52:11.395Z,102249.22
2023-05-13T05:54:38.289Z,102252.44
2023-05-13T05:57:05.301Z,102254.94
2023-05-13T05:59:32.144Z,102252.44
2023-05-13T06:01:59.218Z,102253.53
2023-05-13T06:04:26.430Z,102247.66
2023-05-13T06:06:53.418Z,102250.63
2023-05-13T06:09:20.391Z,102247.56
2023-05-13T06:11:49.053Z,102246.03
2023-05-13T06:14:17.679Z,102251.97
2023-05-13T06:16:44.829Z,102249.09
2023-05-13T06:19:11.977Z,102241.72
2023-05-13T06:21:38.853Z,102244.84
2023-05-13T06:24:05.902Z,102239.25
2023-05-13T06:26:32.889Z,102244.69
2023-05-13T06:28:59.860Z,102244.53
2023-05-13T06:31:27.368Z,102239.75
2023-05-13T06:33:54.469Z,102228.09
2023-05-13T06:36:21.752Z,102246.84
2023-05-13T06:38:48.682Z,102242.59
2023-05-13T06:41:15.897Z,102240.72
2023-05-13T06:43:45.884Z,102248.16
2023-05-13T06:46:13.157Z,102241.84
2023-05-13T06:48:40.287Z,102239.78
2023-05-13T06:51:07.345Z,102243.19
2023-05-13T06:53:34.396Z,102242.25
2023-05-13T06:56:01.472Z,102244.88
2023-05-13T06:58:28.500Z,102243.13
2023-05-13T07:00:55.558Z,102237.22
2023-05-13T07:03:23.215Z,102238.44
2023-05-13T07:05:50.121Z,102230.63
2023-05-13T07:08:18.253Z,102237.91
2023-05-13T07:10:45.244Z,102234.00
2023-05-13T07:13:12.247Z,102235.28
2023-05-13T07:15:39.275Z,102233.19
2023-05-13T07:18:06.195Z,102224.81
2023-05-13T07:20:33.273Z,102219.59
2023-05-13T07:23:00.292Z,102225.38
2023-05-13T07:25:27.301Z,102235.19
2023-05-13T07:27:54.289Z,102224.78
2023-05-13T07:30:21.725Z,102227.06
2023-05-13T07:32:48.872Z,102229.59
2023-05-13T07:35:16.945Z,102231.69
2023-05-13T07:37:46.825Z,102223.28
2023-05-13T07:40:14.371Z,102221.88
2023-05-13T07:42:41.372Z,102221.13
2023-05-13T07:45:08.681Z,102225.75
2023-05-13T07:47:35.961Z,102196.34
2023-05-13T07:50:02.932Z,102219.38
2023-05-13T07:52:29.780Z,102219.25
2023-05-13T07:54:56.820Z,102223.13
2023-05-13T07:57:24.760Z,102224.28
2023-05-13T07:59:53.179Z,102216.44
2023-05-13T08:02:20.602Z,102227.28
2023-05-13T08:04:47.454Z,102214.13
2023-05-13T08:07:14.469Z,102220.63
2023-05-13T08:09:41.258Z,102227.13
2023-05-13T08:12:08.662Z,102228.28
2023-05-13T08:14:36.437Z,102227.59
2023-05-13T08:17:05.565Z,102227.78
2023-05-13T08:19:32.474Z,102219.19
2023-05-13T08:21:59.478Z,102219.06
2023-05-13T08:24:26.515Z,102219.97
2023-05-13T08:26:53.677Z,102218.00
2023-05-13T08:29:20.739Z,102215.59
2023-05-13T08:31:47.883Z,102214.19
2023-05-13T08:34:15.244Z,102206.09
2023-05-13T08:36:42.336Z,102213.34
2023-05-13T08:39:09.318Z,102211.16
2023-05-13T08:41:37.842Z,102212.38
2023-05-13T08:44:07.154Z,102205.63
2023-05-13T08:46:36.910Z,102208.91
2023-05-13T08:49:05.197Z,102202.44
2023-05-13T08:51:32.361Z,102202.69
2023-05-13T08:54:01.340Z,102212.63
2023-05-13T08:56:30.081Z,102195.13
2023-05-13T08:58:56.993Z,102200.41
2023-05-13T09:01:27.039Z,102208.75
2023-05-13T09:04:04.801Z,102199.47
2023-05-13T09:06:31.718Z,102202.19
2023-05-13T09:08:59.116Z,102195.44
2023-05-13T09:11:26.940Z,102198.34
2023-05-13T09:13:58.086Z,102197.59
2023-05-13T09:16:25.903Z,102199.69
2023-05-13T09:19:05.716Z,102202.50
2023-05-13T09:21:35.767Z,102191.22
2023-05-13T09:24:21.259Z,102195.22
2023-05-13T09:26:49.943Z,102190.66
2023-05-13T09:29:29.632Z,102191.69
2023-05-13T09:32:01.590Z,102185.72
2023-05-13T09:34:34.684Z,102176.91
2023-05-13T09:37:06.752Z,102173.16
2023-05-13T09:39:38.896Z,102183.50
2023-05-13T09:42:06.534Z,102183.66
2023-05-13T09:44:34.392Z,102173.84
2023-05-13T09:47:02.826Z,102176.41
2023-05-13T09:49:31.751Z,102178.41
2023-05-13T09:51:58.723Z,102173.28
2023-05-13T09:54:26.066Z,102171.72
2023-05-13T09:56:59.807Z,102167.94
2023-05-13T09:59:26.932Z,102172.41
2023-05-13T10:01:56.257Z,102166.66
2023-05-13T10:04:24.205Z,102177.22
2023-05-13T10:06:51.643Z,102172.25
2023-05-13T10:09:18.656Z,102165.91
2023-05-13T10:11:47.885Z,102168.97
2023-05-13T10:14:17.239Z,102170.31
2023-05-13T10:16:45.685Z,102170.69
2023-05-13T10:19:13.403Z,102166.91
2023-05-13T10:21:41.661Z,102162.06
2023-05-13T10:24:10.144Z,102158.56
2023-05-13T10:26:38.187Z,102150.41
2023-05-13T10:29:05.747Z,102142.94
2023-05-13T10:31:33.082Z,102137.09
2023-05-13T10:34:00.072Z,102117.72
2023-05-13T10:36:32.758Z,102149.75
2023-05-13T10:38:59.613Z,102152.31
2023-05-13T10:41:57.186Z,102149.47
2023-05-13T10:44:24.628Z,102126.16
2023-05-13T10:46:51.782Z,102137.97
2023-05-13T10:49:18.886Z,102139.97
2023-05-13T10:51:47.628Z,102126.13
2023-05-13T10:54:25.020Z,102142.16
2023-05-13T10:56:59.296Z,102134.91
2023-05-13T10:59:30.600Z,102138.56
2023-05-13T11:01:57.838Z,102129.91
2023-05-13T11:04:26.508Z,102124.16
2023-05-13T11:06:53.436Z,102138.47
2023-05-13T11:09:23.527Z,102125.22
2023-05-13T11:11:56.674Z,102117.56
2023-05-13T11:14:25.074Z,102130.91
2023-05-13T11:17:02.175Z,102120.97
2023-05-13T11:19:37.428Z,102119.56
2023-05-13T11:22:13.299Z,102128.50
2023-05-13T11:24:40.783Z,102101.22
2023-05-13T11:27:16.706Z,102106.88
2023-05-13T11:29:51.512Z,102109.75
2023-05-13T11:32:57.033Z,102112.88
2023-05-13T11:35:32.100Z,102107.53
2023-05-13T11:38:03.918Z,102113.47
2023-05-13T11:40:37.052Z,102120.50
2023-05-13T11:43:05.480Z,102123.91
2023-05-13T11:45:32.785Z,102098.50
2023-05-13T11:48:19.439Z,102105.59
2023-05-13T11:50:46.999Z,102114.91
2023-05-13T11:53:21.543Z,102104.53
2023-05-13T11:55:50.306Z,102123.16
2023-05-13T11:58:17.599Z,102116.66
2023-05-13T12:00:46.482Z,102121.56
2023-05-13T12:03:16.160Z,102111.72
2023-05-13T12:05:44.830Z,102118.91
2023-05-13T12:08:12.224Z,102120.22
2023-05-13T12:10:45.718Z,102111.91
2023-05-13T12:13:13.172Z,102127.72
2023-05-13T12:15:40.680Z,102135.19
2023-05-13T12:18:08.475Z,102134.84
2023-05-13T12:20:36.545Z,102137.34
2023-05-13T12:23:04.750Z,102135.59
2023-05-13T12:25:46.962Z,102115.97
2023-05-13T12:28:17.200Z,102131.91
2023-05-13T12:31:01.821Z,102138.03
2023-05-13T12:33:31.639Z,102137.88
2023-05-13T12:36:20.408Z,102134.41
2023-05-13T12:39:01.625Z,102126.53
2023-05-13T12:41:40.313Z,102137.75
2023-05-13T12:44:15.417Z,102134.50
2023-05-13T12:46:55.871Z,102129.53
2023-05-13T12:49:23.094Z,102128.31
2023-05-13T12:51:51.967Z,102133.53
2023-05-13T12:54:18.947Z,102128.06
2023-05-13T12:56:46.134Z,102123.72
2023-05-13T12:59:14.683Z,102119.78
2023-05-13T13:01:43.078Z,102119.47
2023-05-13T13:04:10.854Z,102112.19
2023-05-13T13:06:37.956Z,102115.41
2023-05-13T13:09:05.594Z,102112.97
2023-05-13T13:11:32.472Z,102119.09
2023-05-13T13:13:59.265Z,102115.69
2023-05-13T13:16:26.709Z,102111.31
2023-05-13T13:18:55.897Z,102117.53
2023-05-13T13:21:22.996Z,102109.72
2023-05-13T13:23:49.887Z,102110.44
2023-05-13T13:26:16.879Z,102108.69
2023-05-13T13:28:43.800Z,102110.97
2023-05-13T13:31:12.116Z,102115.78
2023-05-13T13:33:39.137Z,102111.44
2023-05-13T13:36:06.496Z,102112.78
2023-05-13T13:38:33.334Z,102114.91
2023-05-13T13:41:00.348Z,102108.94
2023-05-13T13:43:28.070Z,102111.03
2023-05-13T13:45:55.070Z,102109.16
2023-05-13T13:48:22.363Z,102106.69
2023-05-13T13:50:50.658Z,102108.66
2023-05-13T13:53:19.401Z,102091.91
2023-05-13T13:55:46.297Z,102096.78
2023-05-13T13:58:13.295Z,102095.41
2023-05-13T14:00:40.482Z,102097.25
2023-05-13T14:03:07.612Z,102102.91
2023-05-13T14:05:34.533Z,102099.03
2023-05-13T14:08:01.856Z,102093.91
2023-05-13T14:10:29.093Z,102085.47
2023-05-13T14:12:58.946Z,102082.16
2023-05-13T14:15:28.987Z,102076.19
2023-05-13T14:17:56.152Z,102073.69
2023-05-13T14:20:25.076Z,102076.69
2023-05-13T14:22:52.187Z,102072.91
2023-05-13T14:25:19.188Z,102074.06
2023-05-13T14:27:46.171Z,102073.94
2023-05-13T14:30:13.556Z,102072.72
2023-05-13T14:32:45.279Z,102074.47
2023-05-13T14:35:12.927Z,102068.63
2023-05-13T14:37:39.955Z,102068.78
2023-05-13T14:40:07.774Z,102070.41
2023-05-13T14:42:34.584Z,102065.53
2023-05-13T14:45:01.549Z,102077.63
2023-05-13T14:47:28.603Z,102079.91
2023-05-13T14:49:55.506Z,102080.53
2023-05-13T14:52:22.483Z,102083.69
2023-05-13T14:54:49.567Z,102083.69
2023-05-13T14:57:19.515Z,102080.31
2023-05-13T14:59:46.480Z,102078.34
2023-05-13T15:02:14.315Z,102074.69
2023-05-13T15:04:41.292Z,102074.09
2023-05-13T15:07:08.512Z,102069.81
2023-05-13T15:09:35.513Z,102066.47
2023-05-13T15:12:02.570Z,102065.69
2023-05-13T15:14:29.670Z,102068.31
2023-05-13T15:16:56.877Z,102073.19
2023-05-13T15:19:24.010Z,102062.28
2023-05-13T15:21:51.015Z,102067.28
2023-05-13T15:24:17.904Z,102065.44
2023-05-13T15:26:44.980Z,102054.81
2023-05-13T15:29:11.933Z,102069.75
2023-05-13T15:31:39.106Z,102057.97
2023-05-13T15:34:06.037Z,102061.47
2023-05-13T15:36:35.506Z,102064.88
2023-05-13T15:39:02.733Z,102057.88
2023-05-13T15:41:29.848Z,102060.03
2023-05-13T15:43:56.740Z,102052.69
2023-05-13T15:46:24.543Z,102060.66
2023-05-13T15:48:51.717Z,102051.13
2023-05-13T15:51:18.688Z,102032.03
2023-05-13T15:53:45.888Z,102048.84
2023-05-13T15:56:13.391Z,102049.66
2023-05-13T15:58:40.423Z,102044.41
2023-05-13T16:01:07.777Z,102048.56
2023-05-13T16:03:36.496Z,102044.50
2023-05-13T16:06:04.914Z,102039.28
2023-05-13T16:08:31.831Z,102030.81
2023-05-13T16:10:58.774Z,102031.59
2023-05-13T16:13:26.026Z,102030.16
2023-05-13T16:15:53.467Z,102025.88
2023-05-13T16:18:20.258Z,102035.25
2023-05-13T16:20:47.601Z,102030.38
2023-05-13T16:23:14.556Z,102031.41
2023-05-13T16:25:44.773Z,102020.47
2023-05-13T16:28:11.810Z,102030.81
2023-05-13T16:30:39.676Z,102028.13
2023-05-13T16:33:08.226Z,102036.81
2023-05-13T16:35:36.693Z,102034.50
2023-05-13T16:38:03.803Z,102034.72
2023-05-13T16:40:30.768Z,102024.41
2023-05-13T16:43:01.017Z,102029.63
2023-05-13T16:45:29.847Z,102027.69
2023-05-13T16:47:57.204Z,102033.59
2023-05-13T16:50:24.537Z,102027.84
2023-05-13T16:52:51.849Z,102026.44
2023-05-13T16:55:19.000Z,102024.88
2023-05-13T16:57:47.265Z,102025.16
2023-05-13T17:00:14.724Z,102022.75
2023-05-13T17:02:43.040Z,102018.97
2023-05-13T17:05:10.310Z,102023.44
2023-05-13T17:07:37.606Z,102008.13
2023-05-13T17:10:05.024Z,102013.03
2023-05-13T17:12:31.909Z,102010.72
2023-05-13T17:14:58.957Z,102018.81
2023-05-13T17:17:25.995Z,102000.59
2023-05-13T17:19:52.840Z,102018.97
2023-05-13T17:22:19.800Z,102023.28
2023-05-13T17:24:49.073Z,102031.28
2023-05-13T17:27:15.871Z,102032.31
2023-05-13T17:29:42.496Z,102030.03
2023-05-13T17:32:09.372Z,102027.44
2023-05-13T17:34:36.088Z,102026.81
2023-05-13T17:37:03.022Z,102025.75
2023-05-13T17:39:29.859Z,102040.63
2023-05-13T17:41:56.757Z,102030.22
2023-05-13T17:44:25.002Z,102037.78
2023-05-13T17:46:52.129Z,102040.97
2023-05-13T17:49:19.082Z,102036.44
2023-05-13T17:51:46.005Z,102029.72
2023-05-13T17:54:13.014Z,102030.75
2023-05-13T17:56:40.039Z,102023.16
2023-05-13T17:59:07.158Z,102018.59
2023-05-13T18:01:34.164Z,102029.84
2023-05-13T18:04:01.040Z,102035.16
2023-05-13T18:06:27.887Z,101990.34
2023-05-13T18:08:54.683Z,102032.44
2023-05-13T18:11:24.186Z,102044.34
2023-05-13T18:13:50.984Z,102040.97
2023-05-13T18:16:19.653Z,102048.66
2023-05-13T18:18:48.854Z,102046.91
2023-05-13T18:21:15.865Z,102048.06
2023-05-13T18:23:44.354Z,102047.72
2023-05-13T18:26:11.048Z,102053.94
2023-05-13T18:28:38.059Z,102050.84
2023-05-13T18:31:04.804Z,102051.81
2023-05-13T18:33:31.632Z,102057.69
2023-05-13T18:35:58.336Z,102055.22
2023-05-13T18:38:25.300Z,102057.88
2023-05-13T18:40:54.945Z,102066.81
2023-05-13T18:43:21.773Z,102057.22
2023-05-13T18:45:49.104Z,102060.34
2023-05-13T18:48:16.160Z,102059.44
2023-05-13T18:50:43.035Z,102068.91
2023-05-13T18:53:09.795Z,102018.66
2023-05-13T18:55:36.858Z,102065.84
2023-05-13T18:58:03.793Z,102068.34
2023-05-13T19:00:30.610Z,102075.88
2023-05-13T19:02:57.589Z,102085.31
2023-05-13T19:05:24.578Z,102086.47
2023-05-13T19:07:51.355Z,102092.63
2023-05-13T19:10:18.254Z,102077.47
2023-05-13T19:12:48.782Z,102089.84
2023-05-13T19:15:15.809Z,102091.38
2023-05-13T19:17:44.801Z,102097.03
2023-05-13T19:20:12.094Z,102098.56
2023-05-13T19:22:39.021Z,102084.84
2023-05-13T19:25:06.475Z,102088.47
2023-05-13T19:27:33.501Z,102097.41
2023-05-13T19:30:01.730Z,102099.56
2023-05-13T19:32:29.273Z,102107.16
2023-05-13T19:34:56.385Z,102097.06
2023-05-13T19:37:29.355Z,102098.81
2023-05-13T19:39:56.618Z,102106.25
2023-05-13T19:42:24.107Z,102094.00
2023-05-13T19:44:50.945Z,102101.06
2023-05-13T19:47:17.929Z,102085.03
2023-05-13T19:49:44.915Z,102109.19
2023-05-13T19:52:12.090Z,102108.50
2023-05-13T19:54:38.897Z,102104.31
2023-05-13T19:57:06.374Z,102105.44
2023-05-13T19:59:33.278Z,102111.47
2023-05-13T20:02:00.322Z,102106.69
2023-05-13T20:04:27.247Z,102104.34
2023-05-13T20:06:54.686Z,102111.91
2023-05-13T20:09:22.534Z,102110.59
2023-05-13T20:11:49.360Z,102112.63
2023-05-13T20:14:23.128Z,102108.56
2023-05-13T20:16:50.246Z,102105.75
2023-05-13T20:19:17.674Z,102104.31
2023-05-13T20:21:45.052Z,102104.53
2023-05-13T20:24:12.184Z,102103.03
2023-05-13T20:26:39.067Z,102101.91
2023-05-13T20:29:06.215Z,102097.59
2023-05-13T20:31:33.044Z,102108.50
2023-05-13T20:34:03.314Z,102114.50
2023-05-13T20:36:30.267Z,102106.75
2023-05-13T20:38:57.082Z,102104.69
2023-05-13T20:41:24.201Z,102103.31
2023-05-13T20:43:51.365Z,102105.75
2023-05-13T20:46:18.180Z,102103.13
2023-05-13T20:48:45.135Z,102099.06
2023-05-13T20:51:12.077Z,102098.38
2023-05-13T20:53:39.274Z,102101.38
2023-05-13T20:56:07.344Z,102102.00
2023-05-13T20:58:34.264Z,102101.50
2023-05-13T21:01:01.256Z,102103.34
2023-05-13T21:03:28.228Z,102104.06
2023-05-13T21:05:55.220Z,102100.25
2023-05-13T21:08:22.157Z,102105.50
2023-05-13T21:10:49.238Z,102103.09
2023-05-13T21:13:16.586Z,102104.69
2023-05-13T21:15:44.822Z,102094.16
2023-05-13T21:18:11.746Z,102088.00
2023-05-13T21:20:38.474Z,102103.56
2023-05-13T21:23:05.413Z,102102.81
2023-05-13T21:25:32.138Z,102109.72
2023-05-13T21:27:58.865Z,102104.25
2023-05-13T21:30:26.193Z,102104.22
2023-05-13T21:32:53.307Z,102106.25
2023-05-13T21:35:20.399Z,102103.84
2023-05-13T21:37:48.760Z,102100.53
2023-05-13T21:40:16.809Z,102100.28
2023-05-13T21:42:43.635Z,102100.44
2023-05-13T21:45:11.297Z,102096.28
2023-05-13T21:47:38.162Z,102100.72
2023-05-13T21:50:07.799Z,102097.31
2023-05-13T21:52:35.158Z,102099.53
2023-05-13T21:55:02.314Z,102107.63
2023-05-13T21:57:29.474Z,102098.16
2023-05-13T21:59:56.656Z,102094.09
2023-05-13T22:02:26.334Z,102102.09
2023-05-13T22:04:53.297Z,102098.09
2023-05-13T22:07:20.306Z,102101.03
2023-05-13T22:09:48.499Z,102108.00
2023-05-13T22:12:17.141Z,102093.94
2023-05-13T22:14:44.453Z,102107.75
2023-05-13T22:17:11.363Z,102099.69
2023-05-13T22:19:38.261Z,102099.16
2023-05-13T22:22:05.382Z,102087.59
2023-05-13T22:24:32.468Z,102101.34
2023-05-13T22:27:00.498Z,102097.34
2023-05-13T22:29:27.624Z,102103.50
2023-05-13T22:31:55.903Z,102100.88
2023-05-13T22:34:23.376Z,102103.41
2023-05-13T22:36:50.144Z,102101.06
2023-05-13T22:39:17.724Z,102104.94
2023-05-13T22:41:45.412Z,102094.66
2023-05-13T22:44:12.464Z,102096.84
2023-05-13T22:46:39.611Z,102096.16
2023-05-13T22:49:07.288Z,102085.56
2023-05-13T22:51:34.295Z,102082.69
2023-05-13T22:54:01.415Z,102086.84
2023-05-13T22:56:28.302Z,102080.56
2023-05-13T22:58:55.130Z,102077.84
2023-05-13T23:01:22.341Z,102084.06
2023-05-13T23:03:49.425Z,102080.34
2023-05-13T23:06:16.324Z,102082.84
2023-05-13T23:08:43.339Z,102078.63
2023-05-13T23:11:12.648Z,102072.28
2023-05-13T23:13:39.481Z,102087.69
2023-05-13T23:16:06.753Z,102080.66
2023-05-13T23:18:34.516Z,102077.47
2023-05-13T23:21:02.812Z,102066.31
2023-05-13T23:23:29.619Z,102072.13
2023-05-13T23:25:56.743Z,102065.13
2023-05-13T23:28:23.678Z,102077.56
2023-05-13T23:30:54.326Z,102079.16
2023-05-13T23:33:21.484Z,102077.66
2023-05-13T23:35:54.521Z,102071.88
2023-05-13T23:38:21.776Z,102079.81
2023-05-13T23:40:48.979Z,102069.91
2023-05-13T23:43:16.048Z,102075.53
2023-05-13T23:45:43.226Z,102072.34
2023-05-13T23:48:10.223Z,102068.06
2023-05-13T23:50:37.005Z,102066.00
2023-05-13T23:53:03.985Z,102055.84
2023-05-13T23:55:30.852Z,102059.75
2023-05-13T23:57:57.840Z,102044.34
